Time;durP1;ratioP1;P1;durP2;ratioP2;P2;SDS_P1;SDS_P2;PMS_P1;PMS_P2;Temp;Humidity;BMP_temperature;BMP_pressure;BME280_temperature;BME280_humidity;BME280_pressure;Samples;Min_cycle;Max_cycle;Signal;HPM_P1;HPM_P2
2022/08/13 00:01:45;;;;;;;2.5;2.3;;;;;;;14.66;75.32617;937.7463;;;;
2022/08/13 00:04:11;;;;;;;4;2.3;;;;;;;14.63;74.97559;937.7497;;;;
2022/08/13 00:09:04;;;;;;;4.9;2.2;;;;;;;14.52;74.13672;937.682;;;;
2022/08/13 00:13:54;;;;;;;4.3;1.9;;;;;;;14.43;73.87012;937.6631;;;;
2022/08/13 00:16:19;;;;;;;3.1;2.2;;;;;;;14.44;73.76563;937.6545;;;;
2022/08/13 00:18:44;;;;;;;3.7;2;;;;;;;14.42;73.91406;937.6752;;;;
2022/08/13 00:21:12;;;;;;;2.5;2;;;;;;;14.48;73.7041;937.6526;;;;
2022/08/13 00:23:37;;;;;;;3.1;2.1;;;;;;;14.49;73.4873;937.6895;;;;
2022/08/13 00:26:04;;;;;;;4.3;2.3;;;;;;;14.48;73.76172;937.6679;;;;
2022/08/13 00:28:31;;;;;;;2.5;2.3;;;;;;;14.45;74.02246;937.64;;;;
2022/08/13 00:30:59;;;;;;;4.1;2;;;;;;;14.43;73.83496;937.6711;;;;
2022/08/13 00:33:22;;;;;;;3.7;1.8;;;;;;;14.43;73.43164;937.625;;;;
2022/08/13 00:35:48;;;;;;;2.6;1.9;;;;;;;14.44;73.27051;937.6273;;;;
2022/08/13 00:38:13;;;;;;;4.2;2.1;;;;;;;14.42;73.04883;937.6135;;;;
2022/08/13 00:40:44;;;;;;;3.2;2.1;;;;;;;14.34;73.29004;937.5873;;;;
2022/08/13 00:43:14;;;;;;;5;2.2;;;;;;;14.37;73.2373;937.5911;;;;
2022/08/13 00:45:39;;;;;;;2.4;2;;;;;;;14.36;73.44141;937.6057;;;;
2022/08/13 00:50:29;;;;;;;3.2;1.9;;;;;;;14.3;73.9043;937.5506;;;;
2022/08/13 00:52:55;;;;;;;3.1;2.1;;;;;;;14.21;75.05176;937.478;;;;
2022/08/13 00:55:22;;;;;;;2.2;2;;;;;;;14.16;74.69922;937.5119;;;;
2022/08/13 00:57:47;;;;;;;3.9;2.1;;;;;;;14.11;75.3457;937.5034;;;;
2022/08/13 01:00:15;;;;;;;4.6;2.3;;;;;;;14.11;75.25488;937.5754;;;;
2022/08/13 01:02:39;;;;;;;2.7;2;;;;;;;14.07;74.63574;937.5637;;;;
2022/08/13 01:05:04;;;;;;;2.9;2;;;;;;;13.99;74.98047;937.6254;;;;
2022/08/13 01:07:30;;;;;;;2.5;2.1;;;;;;;13.97;75.23047;937.6208;;;;
2022/08/13 01:09:58;;;;;;;3.2;2;;;;;;;13.94;75.28125;937.6633;;;;
2022/08/13 01:12:23;;;;;;;2.4;1.8;;;;;;;13.88;75.44531;937.7059;;;;
2022/08/13 01:14:48;;;;;;;2.3;2;;;;;;;13.9;75.05664;937.7011;;;;
2022/08/13 01:17:15;;;;;;;2.3;2.1;;;;;;;13.9;75.30957;937.657;;;;
2022/08/13 01:19:41;;;;;;;2.2;2;;;;;;;13.94;75.27051;937.6841;;;;
2022/08/13 01:22:08;;;;;;;3.2;2.1;;;;;;;13.93;75.35938;937.6273;;;;
2022/08/13 01:24:33;;;;;;;2.5;2.3;;;;;;;13.98;75.0459;937.7776;;;;
2022/08/13 01:27:01;;;;;;;3.2;2;;;;;;;13.94;75.32813;937.7586;;;;
2022/08/13 01:29:26;;;;;;;2.9;2.2;;;;;;;13.88;75.69629;937.7772;;;;
2022/08/13 01:31:53;;;;;;;1.9;1.8;;;;;;;13.82;75.66406;937.7598;;;;
2022/08/13 01:34:17;;;;;;;3.5;2;;;;;;;13.73;76.1543;937.747;;;;
2022/08/13 01:36:46;;;;;;;3;2.1;;;;;;;13.8;75.76465;937.7204;;;;
2022/08/13 01:39:10;;;;;;;2.5;2.3;;;;;;;13.78;75.86523;937.7028;;;;
2022/08/13 01:41:38;;;;;;;2.2;2;;;;;;;13.77;76.30078;937.7061;;;;
2022/08/13 01:44:06;;;;;;;3.6;2;;;;;;;13.75;75.90332;937.723;;;;
2022/08/13 01:50:28;;;;;;;2.2;2;;;;;;;13.57;75.95313;937.7177;;;;
2022/08/13 01:51:21;;;;;;;3.4;2.3;;;;;;;13.47;76.21191;937.758;;;;
2022/08/13 01:53:46;;;;;;;2.6;1.9;;;;;;;13.4;76.44238;937.7211;;;;
2022/08/13 01:56:10;;;;;;;2.8;2.4;;;;;;;13.18;77.59766;937.6516;;;;
2022/08/13 01:58:35;;;;;;;3;1.9;;;;;;;13.3;77.05566;937.7333;;;;
2022/08/13 02:01:01;;;;;;;2.2;1.9;;;;;;;13.36;76.75586;937.7452;;;;
2022/08/13 02:03:25;;;;;;;4;2.1;;;;;;;13.29;76.8584;937.7317;;;;
2022/08/13 02:05:50;;;;;;;2.4;2;;;;;;;13.07;77.91309;937.677;;;;
2022/08/13 02:08:16;;;;;;;3.2;2.2;;;;;;;13.05;78.12598;937.7034;;;;
2022/08/13 02:10:42;;;;;;;3;2.2;;;;;;;12.91;78.65137;937.6578;;;;
2022/08/13 02:13:07;;;;;;;3.1;2.4;;;;;;;12.69;79.81543;937.6535;;;;
2022/08/13 02:15:43;;;;;;;3.4;2.1;;;;;;;12.74;79.73535;937.6248;;;;
2022/08/13 02:18:12;;;;;;;2.7;2.1;;;;;;;12.54;80.41016;937.642;;;;
2022/08/13 02:20:34;;;;;;;3.5;2.3;;;;;;;12.42;81.16602;937.7017;;;;
2022/08/13 02:23:01;;;;;;;4.2;2.3;;;;;;;12.49;81.04199;937.7146;;;;
2022/08/13 02:25:26;;;;;;;2;1.9;;;;;;;12.68;80.44629;937.7534;;;;
2022/08/13 02:27:55;;;;;;;2.1;1.9;;;;;;;12.83;79.52051;937.8008;;;;
2022/08/13 02:30:19;;;;;;;2.2;2;;;;;;;12.86;79.13672;937.7872;;;;
2022/08/13 02:32:43;;;;;;;2.8;2;;;;;;;12.83;79.21094;937.7266;;;;
2022/08/13 02:35:10;;;;;;;1.9;1.8;;;;;;;12.87;78.98926;937.7305;;;;
2022/08/13 02:37:36;;;;;;;2.2;2;;;;;;;12.91;78.60547;937.7584;;;;
2022/08/13 02:40:04;;;;;;;2;1.9;;;;;;;12.91;78.44629;937.7129;;;;
2022/08/13 02:42:31;;;;;;;2.8;2.1;;;;;;;12.93;78.26465;937.7193;;;;
2022/08/13 02:44:53;;;;;;;2.1;1.9;;;;;;;12.96;78.23438;937.6841;;;;
2022/08/13 02:47:20;;;;;;;2.4;1.9;;;;;;;12.86;78.34473;937.633;;;;
2022/08/13 02:49:50;;;;;;;2.6;2.3;;;;;;;12.81;78.69043;937.6295;;;;
2022/08/13 02:52:10;;;;;;;2.3;2.1;;;;;;;12.87;78.43848;937.5914;;;;
2022/08/13 02:54:37;;;;;;;3.2;2.2;;;;;;;12.83;78.86621;937.6465;;;;
2022/08/13 02:57:01;;;;;;;3.4;2.1;;;;;;;12.85;78.66406;937.6458;;;;
2022/08/13 02:59:28;;;;;;;3.1;2.3;;;;;;;12.85;78.47949;937.6002;;;;
2022/08/13 03:01:54;;;;;;;2.5;2.2;;;;;;;12.8;78.4707;937.6663;;;;
2022/08/13 03:05:10;;;;;;;2.3;1.9;;;;;;;12.71;78.92676;937.5968;;;;
2022/08/13 03:07:37;;;;;;;2.2;2;;;;;;;12.67;79.1709;937.6575;;;;
2022/08/13 03:10:00;;;;;;;2.4;2.2;;;;;;;12.72;79.22559;937.6719;;;;
2022/08/13 03:12:32;;;;;;;2.4;2;;;;;;;12.51;79.83984;937.7227;;;;
2022/08/13 03:14:56;;;;;;;2.2;2;;;;;;;12.44;80.1377;937.6978;;;;
2022/08/13 03:17:27;;;;;;;3.7;2.3;;;;;;;12.4;80.34863;937.6415;;;;
2022/08/13 03:19:52;;;;;;;3.2;2.1;;;;;;;12.4;80.3125;937.683;;;;
2022/08/13 03:22:18;;;;;;;3.1;2.2;;;;;;;12.35;80.44141;937.6973;;;;
2022/08/13 03:24:43;;;;;;;2.5;2.3;;;;;;;12.03;81.87305;937.7514;;;;
2022/08/13 03:27:09;;;;;;;2;1.9;;;;;;;12.15;81.36914;937.6672;;;;
2022/08/13 03:29:34;;;;;;;2.7;2.2;;;;;;;12.19;81.15625;937.7175;;;;
2022/08/13 03:32:02;;;;;;;2.4;2.2;;;;;;;12.3;80.88086;937.6638;;;;
2022/08/13 03:34:28;;;;;;;2.4;2.2;;;;;;;12.43;80.25195;937.6331;;;;
2022/08/13 03:36:55;;;;;;;1.8;1.7;;;;;;;12.38;80.27441;937.6431;;;;
2022/08/13 03:39:19;;;;;;;2.2;1.8;;;;;;;12.25;80.66602;937.6669;;;;
2022/08/13 03:41:44;;;;;;;3.8;2.4;;;;;;;12.14;81.41211;937.6688;;;;
2022/08/13 03:44:10;;;;;;;3.4;2.2;;;;;;;12.06;81.85449;937.6573;;;;
2022/08/13 03:46:37;;;;;;;2.6;2.1;;;;;;;12.18;81.44141;937.6855;;;;
2022/08/13 03:49:02;;;;;;;3.4;2.3;;;;;;;12.27;81.10352;937.6509;;;;
2022/08/13 03:51:29;;;;;;;2.4;2.1;;;;;;;12.37;80.46777;937.6566;;;;
2022/08/13 03:53:54;;;;;;;2.3;2.1;;;;;;;12.32;80.70996;937.6797;;;;
2022/08/13 03:56:22;;;;;;;2.6;2.4;;;;;;;12.45;79.96875;937.6666;;;;
2022/08/13 03:58:46;;;;;;;3.4;2.2;;;;;;;12.55;79.33105;937.7131;;;;
2022/08/13 04:02:33;;;;;;;3.3;2.8;;;;;;;12.57;79.02637;937.6964;;;;
2022/08/13 04:05:00;;;;;;;4.1;2.4;;;;;;;12.46;79.60156;937.6021;;;;
2022/08/13 04:07:27;;;;;;;2.4;2.2;;;;;;;12.29;80.27148;937.6158;;;;
2022/08/13 04:09:50;;;;;;;2.8;2.2;;;;;;;12.25;80.68848;937.6365;;;;
2022/08/13 04:12:16;;;;;;;2.3;2;;;;;;;12.27;80.60059;937.579;;;;
2022/08/13 04:15:16;;;;;;;5.5;2.3;;;;;;;12.19;80.74609;937.5634;;;;
2022/08/13 04:17:41;;;;;;;3.1;2.3;;;;;;;11.78;82.84375;937.5941;;;;
2022/08/13 04:20:11;;;;;;;2.9;2.2;;;;;;;11.82;83.20801;937.5718;;;;
2022/08/13 04:22:36;;;;;;;4.9;2.5;;;;;;;12.03;82.28516;937.5168;;;;
2022/08/13 04:25:04;;;;;;;2.3;2.1;;;;;;;12.22;81.30078;937.5463;;;;
2022/08/13 04:27:26;;;;;;;4.5;2.4;;;;;;;12.38;80.38965;937.5209;;;;
2022/08/13 04:29:55;;;;;;;4.5;2.4;;;;;;;12.43;80.2041;937.4981;;;;
2022/08/13 04:32:23;;;;;;;2.6;2.3;;;;;;;12.47;79.90137;937.4886;;;;
2022/08/13 04:34:45;;;;;;;4.4;2.4;;;;;;;12.53;79.46582;937.4855;;;;
2022/08/13 04:37:14;;;;;;;2.9;2.6;;;;;;;12.5;79.5293;937.4758;;;;
2022/08/13 04:39:39;;;;;;;3.3;2.5;;;;;;;12.56;79.26563;937.4711;;;;
2022/08/13 04:42:09;;;;;;;5.6;2.3;;;;;;;12.61;79.13672;937.4855;;;;
2022/08/13 04:44:39;;;;;;;5.5;2.8;;;;;;;12.52;79.44141;937.4734;;;;
2022/08/13 04:47:04;;;;;;;5.2;2.6;;;;;;;12.45;79.60156;937.4702;;;;
2022/08/13 04:49:33;;;;;;;3.5;2.4;;;;;;;12.49;79.44824;937.4383;;;;
2022/08/13 04:51:58;;;;;;;3.9;2.1;;;;;;;12.42;79.60645;937.5292;;;;
2022/08/13 04:54:23;;;;;;;5.8;2.9;;;;;;;12.12;81.09863;937.5106;;;;
2022/08/13 04:56:49;;;;;;;5.3;2.6;;;;;;;12;81.83301;937.4766;;;;
2022/08/13 04:59:14;;;;;;;6.7;2.7;;;;;;;12.18;81.18945;937.4916;;;;
2022/08/13 05:01:40;;;;;;;5.7;2.8;;;;;;;12.28;80.64746;937.5463;;;;
2022/08/13 05:04:05;;;;;;;5.3;3.1;;;;;;;12.38;80.19629;937.4586;;;;
2022/08/13 05:06:34;;;;;;;5.6;3;;;;;;;12.4;80.2666;937.4483;;;;
2022/08/13 05:09:03;;;;;;;6.3;2.6;;;;;;;12.36;80.54688;937.4027;;;;
2022/08/13 05:11:28;;;;;;;4.5;2.9;;;;;;;12.4;80.39453;937.4554;;;;
2022/08/13 05:13:54;;;;;;;4.2;2.9;;;;;;;12.53;80.03809;937.4606;;;;
2022/08/13 05:16:20;;;;;;;6.4;2.8;;;;;;;12.56;79.75879;937.376;;;;
2022/08/13 05:18:52;;;;;;;4.2;2.7;;;;;;;12.61;79.82324;937.4224;;;;
2022/08/13 05:21:12;;;;;;;4.2;2.6;;;;;;;12.7;79.8418;937.3315;;;;
2022/08/13 05:23:43;;;;;;;3.9;2.2;;;;;;;12.75;79.50586;937.4465;;;;
2022/08/13 05:26:08;;;;;;;4.5;2.4;;;;;;;12.78;79.25781;937.4753;;;;
2022/08/13 05:28:37;;;;;;;4.9;2.4;;;;;;;12.62;80.0791;937.4026;;;;
2022/08/13 05:31:02;;;;;;;3.8;2.4;;;;;;;12.73;79.86914;937.4945;;;;
2022/08/13 05:33:29;;;;;;;2.5;2.1;;;;;;;12.85;80.31543;937.4517;;;;
2022/08/13 05:35:55;;;;;;;3.7;2.3;;;;;;;14.11;75.93262;937.4433;;;;
2022/08/13 05:38:23;;;;;;;1.9;1.7;;;;;;;15.42;70.66504;937.4288;;;;
2022/08/13 05:40:48;;;;;;;2;1.8;;;;;;;16.91;64.93848;937.3856;;;;
2022/08/13 05:43:17;;;;;;;1.8;1.7;;;;;;;18.44;58.92285;937.3894;;;;
2022/08/13 05:45:42;;;;;;;1.7;1.6;;;;;;;19.16;56.09473;937.3253;;;;
2022/08/13 05:48:11;;;;;;;1.6;1.5;;;;;;;18.79;55.91992;937.3353;;;;
2022/08/13 05:50:37;;;;;;;2.4;2.2;;;;;;;18.72;56.77246;937.3619;;;;
2022/08/13 05:53:03;;;;;;;5.3;1.9;;;;;;;18.52;57.05957;937.4263;;;;
2022/08/13 05:55:28;;;;;;;2.4;1.7;;;;;;;19.06;55.61621;937.3455;;;;
2022/08/13 05:57:57;;;;;;;3.6;1.7;;;;;;;19.42;55.75586;937.3675;;;;
2022/08/13 06:05:15;;;;;;;2.4;1.8;;;;;;;22.05;48.10547;937.2678;;;;
2022/08/13 06:07:39;;;;;;;2.9;1.7;;;;;;;22.76;46.22168;937.2737;;;;
2022/08/13 06:10:03;;;;;;;2;1.5;;;;;;;23.58;44.17676;937.1998;;;;
2022/08/13 06:12:31;;;;;;;3.1;1.5;;;;;;;23.96;43.22656;937.1936;;;;
2022/08/13 06:14:56;;;;;;;1.8;1.5;;;;;;;24;42.86523;937.2025;;;;
2022/08/13 06:17:24;;;;;;;2.2;1.4;;;;;;;24.77;41.28906;937.1961;;;;
2022/08/13 06:19:49;;;;;;;4.9;1.7;;;;;;;24.84;41.18945;937.1875;;;;
2022/08/13 06:22:17;;;;;;;4.1;1.7;;;;;;;24.6;41.29688;937.2324;;;;
2022/08/13 06:24:43;;;;;;;2.3;1.5;;;;;;;24.87;42.34766;937.2203;;;;
2022/08/13 06:27:11;;;;;;;2.5;1.5;;;;;;;24.24;42.31152;937.1508;;;;
2022/08/13 06:29:33;;;;;;;1.5;1.4;;;;;;;25.28;40.3916;937.1738;;;;
2022/08/13 06:32:00;;;;;;;2;1.6;;;;;;;24.69;41.30469;937.1619;;;;
2022/08/13 06:34:26;;;;;;;1.4;1.3;;;;;;;25.87;38.97852;937.1077;;;;
2022/08/13 06:36:53;;;;;;;2.8;1.6;;;;;;;24.99;39.92871;937.0256;;;;
2022/08/13 06:39:18;;;;;;;1.3;1.2;;;;;;;24.83;39.35938;937.0168;;;;
2022/08/13 06:41:45;;;;;;;1.4;1.3;;;;;;;23.97;41.7207;936.9872;;;;
2022/08/13 06:44:11;;;;;;;3.5;1.5;;;;;;;24.61;42.32324;936.9006;;;;
2022/08/13 06:46:38;;;;;;;1.7;1.5;;;;;;;26.47;38.79395;936.908;;;;
2022/08/13 06:49:02;;;;;;;1.6;1.3;;;;;;;27.31;37.60938;936.8787;;;;
2022/08/13 06:51:29;;;;;;;1.4;1.3;;;;;;;28.29;35.61133;936.8591;;;;
2022/08/13 06:53:55;;;;;;;2;1.2;;;;;;;28.03;34.72363;936.8555;;;;
2022/08/13 06:56:22;;;;;;;1.4;1.3;;;;;;;28.16;35.69629;936.8588;;;;
2022/08/13 06:58:47;;;;;;;1.2;1.2;;;;;;;28.06;36.43652;936.9155;;;;
2022/08/13 07:01:15;;;;;;;3.4;1.3;;;;;;;28.98;34.46289;936.903;;;;
2022/08/13 07:03:40;;;;;;;1.5;1.1;;;;;;;29.04;34.39648;936.8649;;;;
2022/08/13 07:06:08;;;;;;;1.5;1.4;;;;;;;29.18;34.87207;936.7759;;;;
2022/08/13 07:08:33;;;;;;;1.9;1.2;;;;;;;29.71;33.86328;936.7495;;;;
2022/08/13 07:13:25;;;;;;;2.5;1.4;;;;;;;29.07;34.67285;936.7809;;;;
2022/08/13 07:15:56;;;;;;;1.4;1.3;;;;;;;27.83;36.0498;936.723;;;;
2022/08/13 07:18:21;;;;;;;2.4;1.3;;;;;;;26;38.03125;936.7737;;;;
2022/08/13 07:20:50;;;;;;;2.1;1.5;;;;;;;28;36.20605;936.7181;;;;
2022/08/13 07:23:15;;;;;;;1.6;1.4;;;;;;;28.66;34.21387;936.6635;;;;
2022/08/13 07:25:40;;;;;;;1.4;1.3;;;;;;;29.16;33.33398;936.7363;;;;
2022/08/13 07:28:05;;;;;;;1.7;1.3;;;;;;;29.69;33.00293;936.7466;;;;
2022/08/13 07:30:31;;;;;;;1.9;1.4;;;;;;;26.85;35.24902;936.7308;;;;
2022/08/13 07:32:59;;;;;;;1.5;1.4;;;;;;;25.83;38.08887;936.7211;;;;
2022/08/13 07:35:25;;;;;;;3.2;1.5;;;;;;;26.11;39.17676;936.8161;;;;
2022/08/13 07:37:52;;;;;;;2.4;1.4;;;;;;;25.96;38.04102;936.8108;;;;
2022/08/13 07:40:16;;;;;;;1.6;1.3;;;;;;;25.29;39.40039;936.7892;;;;
2022/08/13 07:42:48;;;;;;;2;1.4;;;;;;;24.62;40.14258;936.8408;;;;
2022/08/13 07:45:18;;;;;;;2.2;1.4;;;;;;;24.42;41.12598;936.7562;;;;
2022/08/13 07:47:50;;;;;;;1.4;1.3;;;;;;;25.22;40.37402;936.764;;;;
2022/08/13 07:50:11;;;;;;;1.4;1.3;;;;;;;25.79;37.9082;936.7444;;;;
2022/08/13 07:52:33;;;;;;;1.5;1.4;;;;;;;28.16;35.54199;936.7255;;;;
2022/08/13 07:55:01;;;;;;;1.4;1.3;;;;;;;29.13;32.43848;936.6655;;;;
2022/08/13 07:57:26;;;;;;;1.4;1.3;;;;;;;29.2;32.58691;936.6781;;;;
2022/08/13 07:59:51;;;;;;;1.9;1.3;;;;;;;29.93;32.25781;936.687;;;;
2022/08/13 08:02:17;;;;;;;1.1;1;;;;;;;31.29;30.97852;936.6445;;;;
2022/08/13 08:04:42;;;;;;;1.6;1.1;;;;;;;32.4;29.95117;936.6563;;;;
2022/08/13 08:07:08;;;;;;;1.5;1.2;;;;;;;33.24;28.70898;936.6386;;;;
2022/08/13 08:09:34;;;;;;;1.3;1.2;;;;;;;32.25;27.97363;936.6435;;;;
2022/08/13 08:14:27;;;;;;;1.2;1.1;;;;;;;31.31;30.52539;936.5828;;;;
2022/08/13 08:22:35;;;;;;;1.6;1.1;;;;;;;33.03;27.56641;936.5959;;;;
2022/08/13 08:25:01;;;;;;;1.6;1.3;;;;;;;34.44;27.71191;936.5969;;;;
2022/08/13 08:27:33;;;;;;;1.2;1.1;;;;;;;35.87;25.65918;936.5824;;;;
2022/08/13 08:30:00;;;;;;;2.1;1.1;;;;;;;37.16;22.97949;936.5917;;;;
2022/08/13 08:32:24;;;;;;;1.5;1.4;;;;;;;35.43;24.11328;936.6345;;;;
2022/08/13 08:34:51;;;;;;;1.6;1.1;;;;;;;36.02;23.85449;936.5572;;;;
2022/08/13 08:42:35;;;;;;;1.6;1;;;;;;;34.73;25.43848;936.5718;;;;
2022/08/13 08:44:32;;;;;;;1.2;1.2;;;;;;;34.6;25.21484;936.5209;;;;
2022/08/13 08:47:01;;;;;;;2;1.3;;;;;;;33.19;28.68164;936.4548;;;;
2022/08/13 08:49:26;;;;;;;2.1;1.3;;;;;;;33.83;28.01074;936.5496;;;;
2022/08/13 08:51:55;;;;;;;1.2;1.1;;;;;;;32.79;30.38477;936.5025;;;;
2022/08/13 08:54:21;;;;;;;2.1;1.3;;;;;;;32.55;29.54004;936.553;;;;
2022/08/13 08:56:48;;;;;;;2.4;1.3;;;;;;;32.05;32.32617;936.4941;;;;
2022/08/13 08:59:13;;;;;;;1.7;1.3;;;;;;;34.18;27.32324;936.5042;;;;
2022/08/13 09:01:45;;;;;;;1.5;1.3;;;;;;;35.68;25.37012;936.5173;;;;
2022/08/13 09:04:13;;;;;;;1.2;1.2;;;;;;;35.33;26.40137;936.4641;;;;
2022/08/13 09:06:39;;;;;;;2.1;1.4;;;;;;;36.37;24.75586;936.508;;;;
2022/08/13 09:09:06;;;;;;;2.6;1.1;;;;;;;32.13;30.82031;936.5188;;;;
2022/08/13 09:11:34;;;;;;;2.2;1.3;;;;;;;33.92;27.6084;936.5117;;;;
2022/08/13 09:13:55;;;;;;;2.6;1.1;;;;;;;30.1;32.28125;936.5269;;;;
2022/08/13 09:16:21;;;;;;;1.5;1;;;;;;;29.89;32.55273;936.5338;;;;
2022/08/13 09:18:48;;;;;;;3.2;1.3;;;;;;;29.03;33.52637;936.5481;;;;
2022/08/13 09:21:13;;;;;;;1.3;1.2;;;;;;;29.6;34.42773;936.5259;;;;
2022/08/13 09:23:42;;;;;;;2.1;1.3;;;;;;;29.75;36.26367;936.507;;;;
2022/08/13 09:26:06;;;;;;;2.2;1.4;;;;;;;29.9;33.5791;936.3971;;;;
2022/08/13 09:28:33;;;;;;;2.3;1.4;;;;;;;30.62;33.46582;936.4109;;;;
2022/08/13 09:30:59;;;;;;;1.4;1.3;;;;;;;29.31;35.5127;936.4775;;;;
2022/08/13 09:33:24;;;;;;;1.8;1.4;;;;;;;28.79;36.46094;936.4518;;;;
2022/08/13 09:35:53;;;;;;;1.4;1.3;;;;;;;27.47;39.75879;936.4851;;;;
2022/08/13 09:38:20;;;;;;;4.1;1.5;;;;;;;27.49;38.63281;936.4711;;;;
2022/08/13 09:40:42;;;;;;;2.7;1.5;;;;;;;28.96;35.37793;936.5123;;;;
2022/08/13 09:43:07;;;;;;;1.4;1.3;;;;;;;29.79;33.49902;936.4915;;;;
2022/08/13 09:45:35;;;;;;;2.4;1.2;;;;;;;29.04;35.54004;936.4874;;;;
2022/08/13 09:48:02;;;;;;;2.7;1.2;;;;;;;29.18;35.32422;936.395;;;;
2022/08/13 09:50:31;;;;;;;4.3;1.5;;;;;;;29.26;35.91406;936.4405;;;;
2022/08/13 09:52:59;;;;;;;3.5;1.4;;;;;;;29.17;34.60938;936.375;;;;
2022/08/13 09:55:24;;;;;;;2.8;1.5;;;;;;;29.36;35.875;936.4088;;;;
2022/08/13 09:57:51;;;;;;;1.6;1.4;;;;;;;29.29;34.8457;936.4844;;;;
2022/08/13 10:00:22;;;;;;;2.4;1.5;;;;;;;28.5;38.8623;936.4395;;;;
2022/08/13 10:02:45;;;;;;;1.8;1.3;;;;;;;28.66;38.12695;936.5123;;;;
2022/08/13 10:05:06;;;;;;;2.3;1.6;;;;;;;27.99;39.21094;936.5013;;;;
2022/08/13 10:07:39;;;;;;;1.5;1.4;;;;;;;27.31;42.0332;936.5031;;;;
2022/08/13 10:10:01;;;;;;;1.6;1.5;;;;;;;27.7;40.28906;936.4564;;;;
2022/08/13 10:12:28;;;;;;;1.5;1.4;;;;;;;27.22;41.76465;936.5027;;;;
2022/08/13 10:14:53;;;;;;;1.5;1.4;;;;;;;27.71;38.88965;936.4869;;;;
2022/08/13 10:17:21;;;;;;;1.9;1.5;;;;;;;28.05;39.14453;936.4966;;;;
2022/08/13 10:19:46;;;;;;;1.5;1.4;;;;;;;28;38.28516;936.4794;;;;
2022/08/13 10:22:11;;;;;;;2;1.5;;;;;;;27.99;39.30469;936.4944;;;;
2022/08/13 10:24:37;;;;;;;1.6;1.4;;;;;;;28.26;38.00977;936.5079;;;;
2022/08/13 10:27:03;;;;;;;1.3;1.2;;;;;;;28.27;38.34375;936.4417;;;;
2022/08/13 10:29:31;;;;;;;2;1.4;;;;;;;27.91;38.9541;936.4408;;;;
2022/08/13 10:31:56;;;;;;;4.2;1.8;;;;;;;26.91;42.75488;936.4748;;;;
2022/08/13 10:34:24;;;;;;;2.6;1.2;;;;;;;27.59;41.5498;936.4075;;;;
2022/08/13 10:36:49;;;;;;;2.1;1.6;;;;;;;27.4;42.19531;936.432;;;;
2022/08/13 10:39:13;;;;;;;1.6;1.5;;;;;;;28.21;39.41992;936.4197;;;;
2022/08/13 10:41:39;;;;;;;1.4;1.2;;;;;;;29.2;37.73145;936.3123;;;;
2022/08/13 10:44:06;;;;;;;2.8;1.4;;;;;;;28.7;39.42773;936.338;;;;
2022/08/13 10:46:33;;;;;;;2.4;1.6;;;;;;;28.52;39.54102;936.2858;;;;
2022/08/13 10:48:58;;;;;;;1.6;1.5;;;;;;;28.7;38.16504;936.2541;;;;
2022/08/13 10:51:21;;;;;;;1.9;1.6;;;;;;;29.17;37.2168;936.3039;;;;
2022/08/13 10:53:59;;;;;;;2.4;1.5;;;;;;;28.21;40.08496;936.27;;;;
2022/08/13 10:56:16;;;;;;;2.1;1.4;;;;;;;27.81;40.57227;936.2339;;;;
2022/08/13 10:58:42;;;;;;;1.4;1.3;;;;;;;29.11;38.27246;936.2623;;;;
2022/08/13 11:01:05;;;;;;;2;1.4;;;;;;;29.08;37.70996;936.2122;;;;
2022/08/13 11:03:33;;;;;;;1.4;1.3;;;;;;;28.9;37.87305;936.2379;;;;
2022/08/13 11:06:00;;;;;;;1.7;1.5;;;;;;;28.95;37.35352;936.2473;;;;
2022/08/13 11:08:26;;;;;;;1.5;1.4;;;;;;;29.13;38.69043;936.3063;;;;
2022/08/13 11:10:52;;;;;;;1.5;1.4;;;;;;;29.42;36.95215;936.278;;;;
2022/08/13 11:13:18;;;;;;;3;1.4;;;;;;;28.54;38.99707;936.2192;;;;
2022/08/13 11:15:46;;;;;;;1.6;1.5;;;;;;;29.22;37.68652;936.1417;;;;
2022/08/13 11:18:13;;;;;;;2.2;1.4;;;;;;;28.51;38.48242;936.2209;;;;
2022/08/13 11:21:02;;;;;;;2.6;1.3;;;;;;;28.22;40.24121;936.1314;;;;
2022/08/13 11:23:03;;;;;;;1.4;1.3;;;;;;;29.54;36.19922;936.1598;;;;
2022/08/13 11:25:32;;;;;;;1.4;1.3;;;;;;;29.91;35.91895;936.1195;;;;
2022/08/13 11:27:57;;;;;;;2.1;1.1;;;;;;;30.54;35.27539;936.0837;;;;
2022/08/13 11:30:23;;;;;;;1.4;1.3;;;;;;;31.2;32.7793;936.0648;;;;
2022/08/13 11:32:48;;;;;;;1.7;1.2;;;;;;;30.83;32.66895;936.0535;;;;
2022/08/13 11:35:20;;;;;;;1.3;1.2;;;;;;;30.7;33.99707;936.0983;;;;
2022/08/13 11:37:45;;;;;;;1.3;1.2;;;;;;;30.19;34.61523;936.0977;;;;
2022/08/13 11:40:18;;;;;;;1.3;1.2;;;;;;;30.94;31.75488;936.092;;;;
2022/08/13 11:42:47;;;;;;;3.6;1.2;;;;;;;29.88;33.68555;936.1078;;;;
2022/08/13 11:45:19;;;;;;;2.6;1.4;;;;;;;28.32;37.26563;935.9867;;;;
2022/08/13 11:47:49;;;;;;;1.4;1.3;;;;;;;28.67;36.83105;936.074;;;;
2022/08/13 11:50:22;;;;;;;2.4;1.3;;;;;;;28.25;38.98242;936.0319;;;;
2022/08/13 11:52:49;;;;;;;1.6;1.5;;;;;;;27.96;38.4834;936.0883;;;;
2022/08/13 11:55:14;;;;;;;1.5;1.3;;;;;;;27.56;38.85254;936.053;;;;
2022/08/13 11:57:43;;;;;;;2.4;1.3;;;;;;;28.17;36.16016;936.0993;;;;
2022/08/13 12:00:14;;;;;;;1.7;1.3;;;;;;;28.12;38.59277;936.0582;;;;
2022/08/13 12:02:43;;;;;;;1.5;1.2;;;;;;;27.85;38.40332;936.0389;;;;
2022/08/13 12:05:09;;;;;;;1.8;1.3;;;;;;;27.8;37.28223;935.9942;;;;
2022/08/13 12:07:37;;;;;;;1.5;1.4;;;;;;;27.85;39.34082;936.0206;;;;
2022/08/13 12:10:02;;;;;;;2.7;1.2;;;;;;;27.75;39.05859;935.9842;;;;
2022/08/13 12:12:31;;;;;;;1.5;1.3;;;;;;;27.64;39.03711;935.9596;;;;
2022/08/13 12:15:00;;;;;;;1.3;1.2;;;;;;;28.07;36.91309;935.9648;;;;
2022/08/13 12:17:27;;;;;;;2.2;1.4;;;;;;;28.39;36.28516;935.9967;;;;
2022/08/13 12:19:56;;;;;;;1.3;1.2;;;;;;;28.6;36.02832;936.0614;;;;
2022/08/13 12:22:21;;;;;;;2.8;1.1;;;;;;;28.58;35.13477;936.0325;;;;
2022/08/13 12:24:47;;;;;;;1.5;1.3;;;;;;;28.24;37.69824;936.0938;;;;
2022/08/13 12:27:14;;;;;;;1.7;1.4;;;;;;;27.83;38.27051;936.0683;;;;
2022/08/13 12:29:39;;;;;;;1.2;1.1;;;;;;;27.85;38.39063;936.1014;;;;
2022/08/13 12:32:05;;;;;;;1.7;1.5;;;;;;;26.74;40.52246;936.1558;;;;
2022/08/13 12:34:36;;;;;;;1.3;1.2;;;;;;;26.43;38.34082;936.1578;;;;
2022/08/13 12:36:58;;;;;;;2.3;1.4;;;;;;;26.44;40.99316;936.1893;;;;
2022/08/13 12:39:23;;;;;;;1.4;1.3;;;;;;;26.72;39.64551;936.0955;;;;
2022/08/13 12:41:48;;;;;;;1.4;1.3;;;;;;;27.02;39.93262;936.1116;;;;
2022/08/13 12:44:16;;;;;;;1.8;1.4;;;;;;;27.33;37.83594;936.1365;;;;
2022/08/13 12:46:41;;;;;;;2.3;1.4;;;;;;;26.9;38.77148;936.048;;;;
2022/08/13 12:49:07;;;;;;;1.5;1.2;;;;;;;26.91;39.03418;936.1381;;;;
2022/08/13 12:51:31;;;;;;;1.3;1.2;;;;;;;27.06;38.79785;936.0367;;;;
2022/08/13 12:53:58;;;;;;;1.5;1.3;;;;;;;26.86;39.39648;936.1625;;;;
2022/08/13 12:56:23;;;;;;;1.5;1.4;;;;;;;26.51;38.96289;936.1161;;;;
2022/08/13 12:58:52;;;;;;;1.7;1.4;;;;;;;26.73;37.7627;936.0803;;;;
2022/08/13 13:01:17;;;;;;;1.3;1.2;;;;;;;26.29;39.47656;936.1031;;;;
2022/08/13 13:03:47;;;;;;;1.4;1.3;;;;;;;26.64;39.67383;936.0305;;;;
2022/08/13 13:06:13;;;;;;;3.3;1.4;;;;;;;26.87;39.24316;936.1201;;;;
2022/08/13 13:08:40;;;;;;;1.4;1.3;;;;;;;27.28;36.7168;936.0588;;;;
2022/08/13 13:11:05;;;;;;;1.3;1.2;;;;;;;27.2;37.78906;936.1647;;;;
2022/08/13 13:13:35;;;;;;;2.2;1.4;;;;;;;27;38.23535;936.0981;;;;
2022/08/13 13:15:56;;;;;;;1.9;1.4;;;;;;;26.7;40.60254;936.1414;;;;
2022/08/13 13:18:22;;;;;;;0.9;0.9;;;;;;;27;37.86816;936.1069;;;;
2022/08/13 13:20:48;;;;;;;1.9;1.3;;;;;;;27.03;37.94238;936.0678;;;;
2022/08/13 13:23:15;;;;;;;1.2;1.1;;;;;;;26.9;38.14453;936.1615;;;;
2022/08/13 13:25:43;;;;;;;1.6;1.2;;;;;;;26.82;37.63965;936.1436;;;;
2022/08/13 13:28:09;;;;;;;1.3;1.2;;;;;;;27.19;36.54395;936.1525;;;;
2022/08/13 13:30:34;;;;;;;2.1;1.3;;;;;;;27.13;35.87598;936.1404;;;;
2022/08/13 13:33:02;;;;;;;1.3;1.2;;;;;;;27.18;37.34961;936.2087;;;;
2022/08/13 13:35:27;;;;;;;1.8;1.5;;;;;;;27.1;35.73047;936.153;;;;
2022/08/13 13:37:54;;;;;;;2.8;1.4;;;;;;;26.85;35.9707;936.1124;;;;
2022/08/13 13:40:19;;;;;;;1.5;1.4;;;;;;;26.62;39.54102;936.2048;;;;
2022/08/13 13:42:46;;;;;;;2;1.3;;;;;;;26.17;38.62598;936.1941;;;;
2022/08/13 13:45:11;;;;;;;2.7;1.2;;;;;;;26.15;38.28125;936.2633;;;;
2022/08/13 13:47:41;;;;;;;1.8;1.4;;;;;;;26.08;39.11426;936.2865;;;;
2022/08/13 13:52:32;;;;;;;1.7;1.6;;;;;;;25.9;38.57813;936.3515;;;;
2022/08/13 13:54:57;;;;;;;1.8;1.2;;;;;;;26.07;37.36426;936.2982;;;;
2022/08/13 13:57:24;;;;;;;2.1;1.5;;;;;;;26.02;36.55566;936.216;;;;
2022/08/13 13:59:49;;;;;;;2.4;1.6;;;;;;;26.25;36.60938;936.2294;;;;
2022/08/13 14:02:19;;;;;;;1.7;1.6;;;;;;;26.18;37.90527;936.2304;;;;
2022/08/13 14:04:50;;;;;;;1.5;1.4;;;;;;;26.21;37.38672;936.1961;;;;
2022/08/13 14:07:19;;;;;;;1.2;1.1;;;;;;;26.21;37.46973;936.152;;;;
2022/08/13 14:09:44;;;;;;;2.4;1.2;;;;;;;26.04;37.82324;936.1816;;;;
2022/08/13 14:12:13;;;;;;;1.8;1.3;;;;;;;25.74;39.73535;936.2084;;;;
2022/08/13 14:14:43;;;;;;;4.4;1.9;;;;;;;25.65;41.33398;936.2642;;;;
2022/08/13 14:17:08;;;;;;;2;1.7;;;;;;;25.86;38.64746;936.2033;;;;
2022/08/13 14:19:36;;;;;;;2;1.3;;;;;;;25.94;37.83789;936.2562;;;;
2022/08/13 14:22:00;;;;;;;1.7;1.5;;;;;;;26.16;37.09961;936.2445;;;;
2022/08/13 14:24:26;;;;;;;2.2;1.4;;;;;;;26.09;37.99219;936.1962;;;;
2022/08/13 14:26:51;;;;;;;2.3;1.3;;;;;;;25.95;39.1748;936.1895;;;;
2022/08/13 14:29:22;;;;;;;1.8;1.3;;;;;;;25.85;40.37207;936.193;;;;
2022/08/13 14:31:45;;;;;;;1.7;1.5;;;;;;;26;39.73535;936.1476;;;;
2022/08/13 14:34:11;;;;;;;1.8;1.5;;;;;;;25.9;40.28223;936.1211;;;;
2022/08/13 14:36:36;;;;;;;1.5;1.4;;;;;;;26.02;38.83789;936.1719;;;;
2022/08/13 14:39:05;;;;;;;3;1.5;;;;;;;26.26;38.70508;936.1071;;;;
2022/08/13 14:41:30;;;;;;;1.4;1.3;;;;;;;26.02;40.46973;936.0708;;;;
2022/08/13 14:43:57;;;;;;;1.3;1.2;;;;;;;26.13;38.52734;936.1012;;;;
2022/08/13 14:46:22;;;;;;;1.7;1.3;;;;;;;25.94;38.60645;936.0742;;;;
2022/08/13 14:48:50;;;;;;;1.7;1.3;;;;;;;25.92;38.43945;936.037;;;;
2022/08/13 14:51:15;;;;;;;2.5;1.5;;;;;;;25.91;39.07715;936.0853;;;;
2022/08/13 14:53:40;;;;;;;1.9;1.4;;;;;;;26.13;37.99512;936.1077;;;;
2022/08/13 14:56:06;;;;;;;1.5;1.4;;;;;;;26.25;36.88086;936.117;;;;